Time;durP1;ratioP1;P1;durP2;ratioP2;P2;SDS_P1;SDS_P2;PMS_P1;PMS_P2;Temp;Humidity;BMP_temperature;BMP_pressure;BME280_temperature;BME280_humidity;BME280_pressure;Samples;Min_cycle;Max_cycle;Signal;HPM_P1;HPM_P2
2023/07/18 00:00:55;;;;;;;7.20;4.05;;;;;;;16.12;100.00;94529.19;4932532;29;20444;-65
2023/07/18 00:03:22;;;;;;;7.68;3.88;;;;;;;16.09;100.00;94523.75;4932726;29;20048;-65
2023/07/18 00:05:49;;;;;;;7.30;4.05;;;;;;;16.07;100.00;94520.63;4915848;29;20070;-62
2023/07/18 00:08:16;;;;;;;7.03;3.43;;;;;;;15.92;100.00;94521.03;4932285;29;20062;-62
2023/07/18 00:10:43;;;;;;;7.40;3.83;;;;;;;15.90;100.00;94520.69;4947328;29;20051;-62
2023/07/18 00:13:09;;;;;;;6.95;4.10;;;;;;;15.91;100.00;94524.22;4932253;29;20492;-64
2023/07/18 00:15:36;;;;;;;10.30;3.40;;;;;;;15.88;100.00;94528.66;4932413;29;20055;-63
2023/07/18 00:18:03;;;;;;;6.47;3.40;;;;;;;15.87;100.00;94524.31;4932453;29;20143;-63
2023/07/18 00:20:30;;;;;;;6.67;3.60;;;;;;;15.85;100.00;94526.72;4915557;29;20058;-60
2023/07/18 00:22:59;;;;;;;19.02;12.60;;;;;;;15.81;100.00;94517.75;4932061;29;20058;-60
2023/07/18 00:25:26;;;;;;;9.75;5.22;;;;;;;15.62;100.00;94527.69;4932184;29;20497;-60
2023/07/18 00:27:53;;;;;;;7.82;4.40;;;;;;;15.54;100.00;94518.00;4932567;29;20493;-61
2023/07/18 00:30:21;;;;;;;9.90;4.10;;;;;;;15.43;100.00;94515.50;4946904;28;20774;-62
2023/07/18 00:32:48;;;;;;;7.67;3.90;;;;;;;15.41;100.00;94520.69;4932479;29;20043;-62
2023/07/18 00:35:16;;;;;;;6.97;4.13;;;;;;;15.41;100.00;94520.69;4931427;29;20102;-63
2023/07/18 00:37:44;;;;;;;8.00;4.10;;;;;;;15.39;100.00;94517.56;4932121;29;20932;-62
2023/07/18 00:40:14;;;;;;;9.13;4.50;;;;;;;15.35;100.00;94519.63;4931656;29;20411;-61
2023/07/18 00:42:45;;;;;;;7.22;4.30;;;;;;;15.26;100.00;94519.47;4942704;28;20051;-60
2023/07/18 00:45:13;;;;;;;8.03;4.50;;;;;;;15.10;100.00;94515.47;4930096;29;20493;-62
2023/07/18 00:47:45;;;;;;;9.52;4.47;;;;;;;15.10;100.00;94523.78;4913355;29;20044;-66
2023/07/18 00:50:17;;;;;;;8.75;4.65;;;;;;;15.11;100.00;94514.28;4919286;29;20531;-62
2023/07/18 00:52:52;;;;;;;7.95;3.90;;;;;;;15.10;100.00;94511.94;4932033;29;20043;-63
2023/07/18 00:55:19;;;;;;;8.15;3.63;;;;;;;15.12;100.00;94504.78;4931644;29;20043;-64
2023/07/18 00:57:47;;;;;;;7.50;3.90;;;;;;;15.17;100.00;94506.25;4932039;29;20109;-62
2023/07/18 01:00:16;;;;;;;8.32;4.00;;;;;;;15.15;100.00;94509.47;4931561;29;20165;-62
2023/07/18 01:02:45;;;;;;;6.95;4.00;;;;;;;15.13;100.00;94503.56;4938144;29;20565;-65
2023/07/18 01:05:18;;;;;;;6.15;3.53;;;;;;;15.10;100.00;94507.19;4944362;29;20052;-62
2023/07/18 01:07:46;;;;;;;6.20;3.38;;;;;;;14.96;100.00;94502.00;4943245;29;20051;-60
2023/07/18 01:10:14;;;;;;;5.30;3.33;;;;;;;14.95;100.00;94498.47;4950324;29;20050;-64
2023/07/18 01:12:42;;;;;;;6.93;3.40;;;;;;;14.92;100.00;94496.53;4950808;29;20492;-66
2023/07/18 01:15:12;;;;;;;6.53;3.13;;;;;;;14.91;100.00;94500.53;4949714;29;20445;-64
2023/07/18 01:17:45;;;;;;;9.38;3.38;;;;;;;14.89;100.00;94494.66;4949932;28;20406;-64
2023/07/18 01:20:18;;;;;;;7.38;3.50;;;;;;;14.88;100.00;94490.31;4949896;29;20527;-61
2023/07/18 01:22:48;;;;;;;6.70;3.60;;;;;;;14.85;100.00;94485.66;4950193;29;20229;-64
2023/07/18 01:25:19;;;;;;;5.60;3.35;;;;;;;14.81;100.00;94486.94;4949799;29;20105;-61
2023/07/18 01:27:48;;;;;;;7.43;3.30;;;;;;;14.74;100.00;94482.34;4950473;29;20069;-61
2023/07/18 01:30:17;;;;;;;8.38;3.60;;;;;;;14.61;100.00;94482.25;4949840;29;20047;-61
2023/07/18 01:32:48;;;;;;;7.07;3.92;;;;;;;14.51;100.00;94483.22;4949955;29;20051;-63
2023/07/18 01:35:19;;;;;;;7.43;3.70;;;;;;;14.52;100.00;94482.00;4949936;29;20074;-61
2023/07/18 01:37:47;;;;;;;8.85;4.03;;;;;;;14.47;100.00;94483.31;4950128;29;20418;-62
2023/07/18 01:40:19;;;;;;;8.20;4.22;;;;;;;14.48;100.00;94471.03;4950071;29;20056;-64
2023/07/18 01:42:51;;;;;;;7.55;3.95;;;;;;;14.49;100.00;94474.59;4950183;29;20098;-62
2023/07/18 01:45:22;;;;;;;7.13;3.95;;;;;;;14.48;100.00;94476.56;4937544;29;20113;-66
2023/07/18 01:47:51;;;;;;;7.13;3.50;;;;;;;14.45;100.00;94469.13;4950002;29;20039;-61
2023/07/18 01:50:18;;;;;;;7.32;3.78;;;;;;;14.46;100.00;94469.91;4949706;29;20073;-61
2023/07/18 01:52:48;;;;;;;9.75;3.80;;;;;;;14.38;100.00;94467.28;4949783;29;20121;-61
2023/07/18 01:55:16;;;;;;;6.93;3.50;;;;;;;14.29;100.00;94469.09;4949594;29;20051;-64
2023/07/18 01:57:48;;;;;;;6.68;3.40;;;;;;;14.30;100.00;94468.66;4949686;29;20133;-61
2023/07/18 02:00:19;;;;;;;6.30;3.33;;;;;;;14.32;100.00;94469.00;4932674;29;20384;-61
2023/07/18 02:02:49;;;;;;;6.53;3.60;;;;;;;14.34;100.00;94463.06;4949896;29;20054;-61
2023/07/18 02:05:19;;;;;;;9.07;3.53;;;;;;;14.35;100.00;94465.41;4949640;29;20047;-63
2023/07/18 02:07:47;;;;;;;7.88;3.50;;;;;;;14.33;100.00;94469.78;4949327;29;20054;-64
2023/07/18 02:10:16;;;;;;;6.95;3.38;;;;;;;14.28;100.00;94471.06;4949350;29;20393;-64
2023/07/18 02:12:43;;;;;;;5.83;3.50;;;;;;;14.19;100.00;94468.88;4949569;29;20046;-61
2023/07/18 02:15:13;;;;;;;7.40;3.05;;;;;;;14.18;100.00;94472.84;4949024;29;20051;-64
2023/07/18 02:17:40;;;;;;;7.30;3.58;;;;;;;14.17;100.00;94468.53;4949455;29;20047;-61
2023/07/18 02:20:11;;;;;;;6.97;3.22;;;;;;;14.17;100.00;94474.03;4949466;29;20047;-64
2023/07/18 02:22:40;;;;;;;7.60;3.65;;;;;;;14.17;100.00;94467.75;4949073;29;20183;-62
2023/07/18 02:25:09;;;;;;;6.70;3.30;;;;;;;14.14;100.00;94474.09;4949160;29;20055;-61
2023/07/18 02:27:39;;;;;;;5.93;3.35;;;;;;;14.12;100.00;94466.25;4932510;29;20036;-61
2023/07/18 02:30:11;;;;;;;6.25;3.38;;;;;;;14.12;100.00;94468.22;4936414;29;20098;-61
2023/07/18 02:32:39;;;;;;;6.38;3.50;;;;;;;14.12;100.00;94465.47;4938936;29;20036;-61
2023/07/18 02:35:07;;;;;;;7.70;4.00;;;;;;;14.12;100.00;94460.72;4932322;29;20110;-61
2023/07/18 02:37:34;;;;;;;8.30;3.63;;;;;;;14.12;100.00;94460.72;4949027;29;20040;-62
2023/07/18 02:40:09;;;;;;;6.53;3.70;;;;;;;14.09;100.00;94458.06;4949072;29;20047;-64
2023/07/18 02:42:37;;;;;;;6.82;3.40;;;;;;;14.08;100.00;94456.50;4949326;29;20051;-61
2023/07/18 02:45:06;;;;;;;6.13;3.35;;;;;;;14.03;100.00;94465.28;4948984;29;20040;-61
2023/07/18 02:47:33;;;;;;;7.53;3.85;;;;;;;14.01;100.00;94462.94;4949338;29;20053;-61
2023/07/18 02:50:00;;;;;;;7.00;3.77;;;;;;;13.88;100.00;94451.72;4949000;29;20055;-64
2023/07/18 02:52:27;;;;;;;5.72;3.33;;;;;;;13.79;100.00;94457.06;4949399;29;20422;-62
2023/07/18 02:54:54;;;;;;;7.25;3.50;;;;;;;13.74;100.00;94458.34;4949148;29;20443;-62
2023/07/18 02:57:20;;;;;;;6.03;3.50;;;;;;;13.72;100.00;94454.41;4948687;29;20403;-64
2023/07/18 02:59:47;;;;;;;8.13;3.70;;;;;;;13.64;100.00;94466.78;4948778;29;20049;-61
2023/07/18 03:02:14;;;;;;;6.73;3.97;;;;;;;13.60;100.00;94464.09;4948748;29;20062;-61
2023/07/18 03:04:41;;;;;;;11.27;6.18;;;;;;;13.65;100.00;94460.09;4948955;29;20078;-64
2023/07/18 03:07:08;;;;;;;9.45;5.07;;;;;;;13.58;100.00;94453.50;4947522;29;20443;-61
2023/07/18 03:09:35;;;;;;;7.65;4.50;;;;;;;13.57;100.00;94456.66;4948945;29;20149;-64
2023/07/18 03:12:02;;;;;;;7.68;3.50;;;;;;;13.44;100.00;94451.00;4949006;29;20060;-61
2023/07/18 03:14:29;;;;;;;7.37;3.30;;;;;;;13.45;100.00;94449.78;4948985;29;20049;-61
2023/07/18 03:16:56;;;;;;;5.57;3.30;;;;;;;13.30;100.00;94449.25;4948388;29;20051;-61
2023/07/18 03:19:23;;;;;;;6.75;3.42;;;;;;;13.29;100.00;94455.97;4932342;29;20155;-63
2023/07/18 03:21:50;;;;;;;5.85;3.30;;;;;;;13.15;100.00;94445.16;4949071;29;20425;-64
2023/07/18 03:24:16;;;;;;;9.50;3.50;;;;;;;13.23;100.00;94457.63;4948510;29;20420;-62
2023/07/18 03:26:45;;;;;;;6.50;3.37;;;;;;;13.12;100.00;94457.81;4948959;29;20057;-64
2023/07/18 03:29:11;;;;;;;7.07;3.72;;;;;;;13.14;100.00;94452.66;4948367;29;20500;-61
2023/07/18 03:31:39;;;;;;;7.13;3.38;;;;;;;13.22;100.00;94449.75;4944456;29;20062;-61
2023/07/18 03:34:06;;;;;;;5.20;3.20;;;;;;;13.24;100.00;94444.59;4930384;29;20110;-61
2023/07/18 03:36:35;;;;;;;6.40;3.40;;;;;;;13.28;100.00;94446.13;4942901;29;20398;-67
2023/07/18 03:39:04;;;;;;;6.20;2.97;;;;;;;13.13;100.00;94444.78;4948390;29;20059;-61
2023/07/18 03:41:30;;;;;;;7.00;3.22;;;;;;;13.21;100.00;94451.75;4950362;28;20587;-66
2023/07/18 03:43:57;;;;;;;6.72;3.28;;;;;;;13.20;100.00;94450.19;4951654;29;20054;-61
2023/07/18 03:46:24;;;;;;;8.38;3.30;;;;;;;13.04;100.00;94441.78;4951035;29;20101;-61
2023/07/18 03:48:51;;;;;;;5.88;3.20;;;;;;;13.08;100.00;94437.00;4950837;29;20484;-62
2023/07/18 03:51:18;;;;;;;6.77;3.50;;;;;;;13.08;100.00;94442.50;4951802;29;20061;-61
2023/07/18 03:53:50;;;;;;;6.43;3.35;;;;;;;13.11;100.00;94442.44;4951738;29;20047;-61
2023/07/18 03:56:17;;;;;;;8.50;4.15;;;;;;;13.23;100.00;94437.56;4935090;29;20654;-61
2023/07/18 03:58:44;;;;;;;7.75;3.33;;;;;;;13.30;100.00;94446.50;4934747;29;20050;-61
2023/07/18 04:01:11;;;;;;;6.53;3.30;;;;;;;13.33;100.00;94436.63;4934790;29;20051;-61
2023/07/18 04:03:38;;;;;;;10.90;3.90;;;;;;;13.33;100.00;94440.13;4951618;29;20047;-61
2023/07/18 04:06:06;;;;;;;6.75;4.07;;;;;;;13.35;100.00;94432.22;4951491;29;20059;-64
2023/07/18 04:08:33;;;;;;;8.18;3.80;;;;;;;13.41;100.00;94431.75;4952119;29;20106;-61
2023/07/18 04:11:00;;;;;;;8.25;3.40;;;;;;;13.39;100.00;94424.66;4951080;29;20051;-65
2023/07/18 04:13:27;;;;;;;6.18;3.38;;;;;;;13.44;100.00;94433.66;4951865;29;20069;-61
2023/07/18 04:15:54;;;;;;;6.13;3.20;;;;;;;13.56;100.00;94435.78;4951245;29;20489;-61
2023/07/18 04:18:22;;;;;;;7.13;3.15;;;;;;;13.44;100.00;94434.47;4947137;29;21782;-61
2023/07/18 04:20:49;;;;;;;7.90;3.40;;;;;;;13.30;100.00;94434.69;4939080;29;20043;-61
2023/07/18 04:23:17;;;;;;;8.25;3.60;;;;;;;13.29;100.00;94431.16;4918323;29;20047;-64
2023/07/18 04:25:56;;;;;;;7.38;3.42;;;;;;;13.24;100.00;94431.63;4946099;28;20138;-63
2023/07/18 04:28:23;;;;;;;7.13;3.10;;;;;;;13.44;100.00;94423.44;4960004;28;20577;-62
2023/07/18 04:30:50;;;;;;;6.55;3.60;;;;;;;13.59;100.00;94418.41;4937347;29;20290;-63
2023/07/18 04:33:17;;;;;;;9.30;3.55;;;;;;;13.66;100.00;94411.97;4935563;29;20396;-61
2023/07/18 04:35:45;;;;;;;7.88;3.70;;;;;;;13.92;100.00;94424.09;4937653;28;20386;-64
2023/07/18 04:38:13;;;;;;;7.97;4.00;;;;;;;14.21;100.00;94420.75;4931424;29;20430;-62
2023/07/18 04:40:41;;;;;;;8.90;3.90;;;;;;;14.17;100.00;94420.81;4937881;29;20043;-61
2023/07/18 04:43:09;;;;;;;9.80;3.90;;;;;;;14.18;100.00;94411.31;4933153;29;20105;-62
2023/07/18 04:45:44;;;;;;;7.60;3.50;;;;;;;14.00;100.00;94417.22;4944999;29;20162;-61
2023/07/18 04:48:13;;;;;;;6.88;3.65;;;;;;;13.80;100.00;94400.66;4950520;29;20044;-61
2023/07/18 04:50:46;;;;;;;6.57;3.65;;;;;;;14.18;100.00;94400.28;4950962;29;20053;-61
2023/07/18 04:53:13;;;;;;;7.13;3.70;;;;;;;14.37;100.00;94385.69;4948463;28;20053;-62
2023/07/18 04:55:40;;;;;;;8.15;3.78;;;;;;;14.44;100.00;94393.00;4950764;29;20117;-64
2023/07/18 04:58:07;;;;;;;8.95;3.75;;;;;;;14.26;100.00;94385.13;4950736;29;20051;-61
2023/07/18 05:00:35;;;;;;;7.22;3.33;;;;;;;14.16;100.00;94386.13;4951223;29;20043;-61
2023/07/18 05:03:02;;;;;;;6.90;3.70;;;;;;;14.39;100.00;94391.53;4949950;29;20047;-61
2023/07/18 05:05:29;;;;;;;9.07;3.83;;;;;;;14.65;100.00;94394.56;4950711;29;20062;-61
2023/07/18 05:08:01;;;;;;;7.45;3.78;;;;;;;14.39;100.00;94391.53;4950062;29;20548;-63
2023/07/18 05:10:28;;;;;;;9.90;4.30;;;;;;;14.12;100.00;94396.47;4950617;29;20039;-62
2023/07/18 05:12:56;;;;;;;9.02;3.92;;;;;;;13.81;100.00;94396.72;4950039;29;20087;-63
2023/07/18 05:15:24;;;;;;;8.27;4.30;;;;;;;14.12;100.00;94394.47;4950118;29;20070;-62
2023/07/18 05:17:50;;;;;;;9.60;4.40;;;;;;;14.38;100.00;94383.69;4950598;29;20483;-61
2023/07/18 05:20:19;;;;;;;9.93;4.00;;;;;;;14.76;100.00;94378.47;4950569;29;20085;-64
2023/07/18 05:22:46;;;;;;;7.47;4.18;;;;;;;14.93;100.00;94376.50;4950595;29;20330;-61
2023/07/18 05:25:15;;;;;;;10.50;3.95;;;;;;;15.01;100.00;94376.31;4948685;29;20508;-61
2023/07/18 05:27:42;;;;;;;6.97;4.38;;;;;;;14.61;100.00;94377.28;4950075;29;20051;-64
2023/07/18 05:30:17;;;;;;;8.43;4.60;;;;;;;14.78;100.00;94376.06;4949897;29;20055;-61
2023/07/18 05:32:45;;;;;;;7.07;4.18;;;;;;;15.05;100.00;94377.00;4949829;29;20086;-61
2023/07/18 05:35:15;;;;;;;7.80;4.25;;;;;;;15.64;100.00;94380.63;4949764;29;20427;-61
2023/07/18 05:37:43;;;;;;;10.02;4.20;;;;;;;18.04;100.00;94370.28;4949866;29;20045;-61
2023/07/18 05:40:11;;;;;;;6.70;4.00;;;;;;;21.24;93.80;94362.22;4949347;29;20427;-61
2023/07/18 05:42:39;;;;;;;8.40;4.20;;;;;;;21.32;86.24;94364.19;4950421;29;20567;-61
2023/07/18 05:45:08;;;;;;;8.70;4.28;;;;;;;20.53;90.98;94362.38;4949429;29;20054;-61
2023/07/18 05:47:35;;;;;;;8.15;4.10;;;;;;;19.30;98.97;94363.38;4949896;29;20061;-61
2023/07/18 05:50:04;;;;;;;6.88;4.22;;;;;;;21.49;87.55;94361.00;4949354;29;20682;-61
2023/07/18 05:52:31;;;;;;;6.53;3.90;;;;;;;22.36;80.97;94349.72;4949943;29;20057;-62
2023/07/18 05:54:58;;;;;;;7.17;3.73;;;;;;;24.02;72.56;94352.31;4949146;29;20146;-64
2023/07/18 05:57:25;;;;;;;7.05;3.58;;;;;;;25.12;66.82;94355.06;4950071;29;20043;-62
2023/07/18 05:59:52;;;;;;;7.35;3.20;;;;;;;24.41;63.70;94340.69;4949861;29;20039;-65
2023/07/18 06:02:20;;;;;;;7.45;3.42;;;;;;;24.58;63.09;94347.25;4945138;29;20047;-61
2023/07/18 06:04:47;;;;;;;5.20;2.85;;;;;;;24.23;64.24;94347.44;4937326;29;20052;-61
2023/07/18 06:07:15;;;;;;;6.93;3.10;;;;;;;24.98;62.00;94348.34;4938922;29;20528;-62
2023/07/18 06:09:42;;;;;;;8.50;3.35;;;;;;;26.87;55.49;94333.16;4930812;29;20054;-69
2023/07/18 06:12:09;;;;;;;8.23;3.30;;;;;;;27.91;49.95;94331.16;4930377;29;20407;-63
2023/07/18 06:14:36;;;;;;;7.72;3.28;;;;;;;27.34;51.67;94333.38;4930895;29;20040;-63
2023/07/18 06:17:03;;;;;;;7.40;3.30;;;;;;;29.26;47.58;94335.09;4929400;29;20048;-63
2023/07/18 06:19:30;;;;;;;5.40;3.20;;;;;;;26.64;49.79;94338.81;4937624;29;20043;-62
2023/07/18 06:21:57;;;;;;;6.05;3.20;;;;;;;27.37;51.05;94331.59;4935586;29;20043;-62
2023/07/18 06:24:24;;;;;;;5.88;3.28;;;;;;;27.63;49.22;94329.19;4938159;29;20042;-62
2023/07/18 06:26:51;;;;;;;7.43;3.20;;;;;;;29.34;45.59;94329.59;4947036;28;20077;-63
2023/07/18 06:29:19;;;;;;;6.82;3.22;;;;;;;28.30;46.66;94324.50;4940680;29;20448;-64
2023/07/18 06:31:47;;;;;;;7.13;2.90;;;;;;;28.85;43.96;94321.81;4933055;29;20051;-62
2023/07/18 06:34:17;;;;;;;5.57;2.60;;;;;;;30.28;42.36;94329.00;4933608;29;20149;-65
2023/07/18 06:36:45;;;;;;;6.95;2.80;;;;;;;31.95;36.55;94314.56;4949064;29;20070;-63
2023/07/18 06:39:13;;;;;;;7.07;2.60;;;;;;;33.06;34.95;94308.97;4948957;29;20047;-63
2023/07/18 06:41:41;;;;;;;5.75;2.78;;;;;;;30.63;37.48;94324.41;4949857;29;20044;-64
2023/07/18 06:44:09;;;;;;;5.40;2.60;;;;;;;31.00;37.91;94329.22;4948998;29;20047;-65
2023/07/18 06:46:36;;;;;;;4.80;2.30;;;;;;;32.60;33.60;94317.09;4949616;29;20510;-63
2023/07/18 06:49:03;;;;;;;7.65;2.10;;;;;;;34.54;29.60;94312.13;4945682;29;20123;-65
2023/07/18 06:51:30;;;;;;;5.43;1.95;;;;;;;34.84;26.58;94313.56;4932337;29;20043;-62
2023/07/18 06:53:57;;;;;;;4.25;1.70;;;;;;;34.68;25.70;94318.47;4945142;29;20050;-62
2023/07/18 06:56:23;;;;;;;3.93;1.83;;;;;;;34.61;25.39;94317.06;4934023;29;20146;-63
2023/07/18 06:58:50;;;;;;;3.50;2.00;;;;;;;35.39;24.27;94319.47;4944792;29;20535;-63
2023/07/18 07:01:17;;;;;;;3.63;2.05;;;;;;;32.71;26.13;94310.38;4949897;29;20049;-65
2023/07/18 07:03:44;;;;;;;7.22;2.13;;;;;;;31.88;26.85;94305.97;4932718;29;20051;-66
2023/07/18 07:06:12;;;;;;;4.25;2.05;;;;;;;28.28;30.93;94307.34;4949777;29;20661;-61
2023/07/18 07:08:39;;;;;;;3.90;2.10;;;;;;;27.99;32.76;94300.31;4949547;29;20382;-62
2023/07/18 07:11:08;;;;;;;4.20;2.00;;;;;;;29.55;30.98;94295.97;4948918;29;20090;-62
2023/07/18 07:13:35;;;;;;;3.88;1.88;;;;;;;30.05;29.18;94300.25;4949556;29;20063;-62
2023/07/18 07:16:03;;;;;;;5.97;2.20;;;;;;;31.16;28.43;94287.72;4948691;28;20090;-63
2023/07/18 07:18:30;;;;;;;4.03;2.15;;;;;;;29.92;30.21;94286.75;4952761;29;20390;-65
2023/07/18 07:20:57;;;;;;;4.97;2.17;;;;;;;30.00;30.04;94287.72;4952746;29;20047;-63
2023/07/18 07:23:24;;;;;;;5.40;1.98;;;;;;;31.28;29.89;94288.28;4953221;29;20055;-65
2023/07/18 07:25:51;;;;;;;3.75;2.10;;;;;;;30.40;29.58;94281.50;4953069;29;20051;-62
2023/07/18 07:28:19;;;;;;;5.82;2.13;;;;;;;27.36;33.38;94271.63;4952713;29;20047;-62
2023/07/18 07:30:46;;;;;;;4.32;2.20;;;;;;;29.70;32.00;94270.06;4953095;29;20507;-66
2023/07/18 07:33:13;;;;;;;5.13;2.20;;;;;;;33.23;27.41;94252.44;4952528;29;20054;-62
2023/07/18 07:35:39;;;;;;;4.35;1.90;;;;;;;31.76;27.80;94251.50;4952890;29;20296;-63
2023/07/18 07:38:06;;;;;;;4.10;2.08;;;;;;;30.67;30.14;94251.97;4951694;29;20055;-63
2023/07/18 07:40:33;;;;;;;5.03;2.10;;;;;;;32.92;28.80;94257.13;4952722;29;20133;-63
2023/07/18 07:43:00;;;;;;;4.05;2.25;;;;;;;34.24;25.83;94250.13;4952314;29;20047;-63
2023/07/18 07:45:27;;;;;;;4.70;2.20;;;;;;;32.31;27.99;94245.16;4952989;29;20043;-62
2023/07/18 07:47:54;;;;;;;4.90;2.35;;;;;;;32.58;28.38;94243.00;4952149;29;20058;-63
2023/07/18 07:50:21;;;;;;;6.13;2.47;;;;;;;31.39;28.77;94254.03;4938444;29;20495;-63
2023/07/18 07:52:47;;;;;;;4.05;2.42;;;;;;;29.41;32.24;94244.19;4952680;29;20182;-63
2023/07/18 07:55:15;;;;;;;3.70;2.40;;;;;;;29.09;33.19;94239.13;4952095;29;20059;-61
2023/07/18 07:57:42;;;;;;;5.40;2.60;;;;;;;28.75;34.04;94233.81;4953046;29;20495;-61
2023/07/18 08:00:09;;;;;;;5.72;2.42;;;;;;;30.70;31.97;94226.69;4951919;29;20411;-62
2023/07/18 08:02:36;;;;;;;5.00;3.03;;;;;;;28.82;34.29;94232.50;4952548;29;20063;-62
2023/07/18 08:05:03;;;;;;;5.40;2.63;;;;;;;28.93;34.17;94223.13;4951473;29;20043;-65
2023/07/18 08:07:30;;;;;;;6.95;3.30;;;;;;;28.67;34.74;94230.84;4932054;29;20060;-62
2023/07/18 08:09:57;;;;;;;7.27;3.00;;;;;;;29.62;33.99;94231.09;4940439;29;20047;-62
2023/07/18 08:12:24;;;;;;;5.82;3.10;;;;;;;29.51;33.81;94233.28;4952180;29;20165;-63
2023/07/18 08:14:51;;;;;;;5.78;3.30;;;;;;;29.83;34.38;94230.56;4952062;29;20043;-61
2023/07/18 08:17:18;;;;;;;5.70;2.65;;;;;;;30.14;33.51;94236.81;4950020;29;20161;-62
2023/07/18 08:19:45;;;;;;;5.43;2.85;;;;;;;31.16;32.46;94231.00;4952374;29;20078;-62
2023/07/18 08:22:11;;;;;;;5.40;3.00;;;;;;;30.23;33.53;94225.88;4951617;29;20050;-63
2023/07/18 08:24:39;;;;;;;4.95;3.03;;;;;;;29.20;34.79;94229.81;4952253;29;20039;-62
2023/07/18 08:27:06;;;;;;;5.53;2.90;;;;;;;28.93;35.14;94231.59;4951258;28;20055;-62
2023/07/18 08:29:34;;;;;;;5.70;2.80;;;;;;;30.31;33.85;94226.03;4950762;29;20376;-61
2023/07/18 08:32:02;;;;;;;6.95;3.00;;;;;;;30.62;33.66;94215.22;4950942;29;20055;-62
2023/07/18 08:34:28;;;;;;;5.53;2.60;;;;;;;31.57;31.47;94217.59;4951647;28;20065;-62
2023/07/18 08:36:55;;;;;;;7.07;2.90;;;;;;;32.33;31.03;94208.44;4950788;29;20056;-63
2023/07/18 08:39:22;;;;;;;5.95;3.13;;;;;;;32.37;31.20;94206.78;4951316;29;20045;-63
2023/07/18 08:41:49;;;;;;;5.78;3.03;;;;;;;31.88;31.93;94224.41;4951322;29;20047;-62
2023/07/18 08:44:16;;;;;;;5.35;2.90;;;;;;;31.94;31.87;94210.09;4951416;29;20055;-63
2023/07/18 08:46:47;;;;;;;6.97;3.30;;;;;;;30.67;33.01;94214.38;4951982;29;20059;-62
2023/07/18 08:49:17;;;;;;;5.70;3.13;;;;;;;29.99;34.62;94214.66;4951208;29;20415;-65
2023/07/18 08:51:45;;;;;;;5.95;2.80;;;;;;;34.14;30.08;94213.63;4934582;29;20047;-64
2023/07/18 08:54:15;;;;;;;5.63;2.97;;;;;;;35.13;27.27;94212.19;4950842;29;20043;-63
2023/07/18 08:56:43;;;;;;;4.82;2.83;;;;;;;36.46;27.76;94211.19;4951362;29;20049;-62
2023/07/18 08:59:11;;;;;;;5.00;2.90;;;;;;;36.05;26.59;94207.59;4950876;29;20113;-64
2023/07/18 09:01:51;;;;;;;5.60;3.00;;;;;;;36.72;25.55;94212.75;4951481;29;20047;-63
2023/07/18 09:04:20;;;;;;;5.22;2.80;;;;;;;38.38;24.20;94205.69;4950895;29;20070;-65
2023/07/18 09:06:49;;;;;;;4.78;2.95;;;;;;;37.12;25.12;94211.88;4942628;29;20047;-63
2023/07/18 09:09:20;;;;;;;9.48;3.10;;;;;;;36.53;25.48;94205.44;4943773;29;20039;-63
2023/07/18 09:11:58;;;;;;;6.60;2.83;;;;;;;39.03;23.82;94205.09;4951321;29;20070;-65
2023/07/18 09:14:32;;;;;;;6.03;2.90;;;;;;;39.08;23.62;94206.16;4949805;29;20051;-61
2023/07/18 09:17:03;;;;;;;4.53;2.85;;;;;;;36.24;25.44;94205.06;4949916;29;20059;-64
2023/07/18 09:19:48;;;;;;;5.60;3.13;;;;;;;35.79;26.30;94204.66;4951461;29;20388;-63
2023/07/18 09:22:19;;;;;;;5.40;3.30;;;;;;;36.45;25.39;94198.25;4950635;29;20074;-64
2023/07/18 09:24:47;;;;;;;4.67;3.00;;;;;;;37.56;25.03;94191.94;4950923;29;20039;-63
2023/07/18 09:27:15;;;;;;;4.80;3.15;;;;;;;36.26;25.95;94185.22;4933390;29;20570;-64
2023/07/18 09:29:46;;;;;;;5.47;3.20;;;;;;;38.01;24.55;94182.66;4949889;29;20040;-63
2023/07/18 09:32:17;;;;;;;4.97;3.20;;;;;;;36.35;25.57;94178.13;4933307;29;20057;-66
2023/07/18 09:34:54;;;;;;;4.15;3.03;;;;;;;35.99;26.16;94176.38;4951005;29;20387;-65
2023/07/18 09:37:21;;;;;;;6.13;3.40;;;;;;;32.58;30.50;94181.25;4949973;28;20146;-64
2023/07/18 09:39:49;;;;;;;5.75;3.50;;;;;;;33.66;29.40;94199.00;4950368;28;20039;-64
2023/07/18 09:42:17;;;;;;;6.70;3.90;;;;;;;31.96;31.55;94213.16;4950460;28;20045;-63
2023/07/18 09:44:48;;;;;;;5.78;3.60;;;;;;;34.88;27.95;94232.00;4933221;29;20040;-66
2023/07/18 09:47:18;;;;;;;5.18;3.55;;;;;;;37.47;25.34;94214.75;4930996;29;20066;-66
2023/07/18 09:49:46;;;;;;;7.53;3.80;;;;;;;30.63;33.52;94202.59;4931606;29;20050;-64
2023/07/18 09:52:14;;;;;;;6.25;3.70;;;;;;;30.62;34.06;94232.97;4931090;29;20420;-64
2023/07/18 09:54:43;;;;;;;7.10;3.88;;;;;;;28.56;38.15;94278.94;4931640;29;20047;-63
2023/07/18 09:57:11;;;;;;;8.38;3.85;;;;;;;30.38;35.75;94312.41;4930733;29;20047;-65
2023/07/18 09:59:39;;;;;;;6.40;3.55;;;;;;;30.29;35.74;94290.91;4931561;29;20122;-63
2023/07/18 10:02:09;;;;;;;6.30;3.60;;;;;;;30.43;35.47;94286.84;4930817;29;20412;-63
2023/07/18 10:04:36;;;;;;;5.15;3.88;;;;;;;29.72;37.15;94279.59;4946044;29;20047;-62
2023/07/18 10:07:04;;;;;;;5.75;3.85;;;;;;;29.46;37.50;94269.59;4916173;29;20060;-63
2023/07/18 10:09:32;;;;;;;7.43;4.15;;;;;;;29.33;38.28;94229.91;4918537;29;20058;-62
2023/07/18 10:11:59;;;;;;;6.72;3.95;;;;;;;29.22;37.99;94140.34;4930968;29;20073;-62
2023/07/18 10:14:30;;;;;;;7.27;4.00;;;;;;;27.19;42.45;94110.28;4931194;29;20050;-64
2023/07/18 10:17:04;;;;;;;6.95;4.05;;;;;;;25.32;52.67;94174.41;4933569;29;20050;-62
2023/07/18 10:19:47;;;;;;;7.22;3.88;;;;;;;26.74;49.54;94206.22;4950324;29;20042;-62
2023/07/18 10:22:25;;;;;;;8.10;4.47;;;;;;;26.98;49.15;94095.78;4948423;29;20465;-62
2023/07/18 10:24:52;;;;;;;6.90;4.70;;;;;;;24.74;59.15;94078.47;4948193;29;20043;-62
2023/07/18 10:27:24;;;;;;;8.63;4.20;;;;;;;26.24;57.20;94110.09;4949447;29;20061;-65
2023/07/18 10:30:08;;;;;;;6.63;4.30;;;;;;;28.26;50.75;94137.75;4950212;29;20430;-62
2023/07/18 10:32:37;;;;;;;6.50;3.85;;;;;;;29.48;47.84;94139.00;4949201;29;20452;-62
2023/07/18 10:35:12;;;;;;;6.13;3.83;;;;;;;29.93;45.40;94121.38;4949436;29;20070;-66
2023/07/18 10:37:44;;;;;;;6.95;4.60;;;;;;;27.96;47.92;94118.03;4950073;29;20058;-62
2023/07/18 10:40:30;;;;;;;6.77;4.63;;;;;;;28.79;46.51;94098.72;4949564;29;20046;-64
2023/07/18 10:42:57;;;;;;;7.50;4.30;;;;;;;28.12;45.46;94117.09;4949037;29;20059;-62
2023/07/18 10:45:24;;;;;;;7.15;4.30;;;;;;;27.82;46.22;94143.22;4950020;29;20039;-65
2023/07/18 10:47:51;;;;;;;7.70;4.43;;;;;;;27.13;48.21;94194.06;4950131;29;20051;-65
2023/07/18 10:50:18;;;;;;;8.35;4.15;;;;;;;27.36;47.44;94206.03;4949456;28;20049;-61
2023/07/18 10:52:46;;;;;;;6.67;4.10;;;;;;;26.73;49.86;94162.47;4952728;29;20113;-62
2023/07/18 10:55:15;;;;;;;8.50;4.50;;;;;;;25.91;52.81;94178.38;4953355;29;20039;-62
2023/07/18 10:57:42;;;;;;;10.90;4.65;;;;;;;26.34;57.24;94225.94;4953664;29;20050;-61
2023/07/18 11:00:09;;;;;;;9.68;5.05;;;;;;;26.54;65.64;94258.69;4953029;29;20077;-64
2023/07/18 11:02:38;;;;;;;11.48;4.93;;;;;;;26.41;83.84;94295.00;4953675;28;20059;-64
2023/07/18 11:05:11;;;;;;;9.37;4.70;;;;;;;25.82;91.77;94353.66;4952150;29;20113;-65
2023/07/18 11:07:40;;;;;;;8.15;4.30;;;;;;;24.60;100.00;94419.72;4936462;29;20394;-63
2023/07/18 11:10:12;;;;;;;6.75;4.47;;;;;;;24.16;100.00;94457.22;4944672;29;20047;-62
2023/07/18 11:12:43;;;;;;;7.18;4.25;;;;;;;24.07;100.00;94489.00;4953731;29;20466;-63
2023/07/18 11:15:11;;;;;;;9.02;4.47;;;;;;;24.04;95.02;94520.81;4952651;29;20047;-61
2023/07/18 11:17:38;;;;;;;9.80;4.80;;;;;;;24.31;91.28;94531.63;4953481;29;20431;-61
2023/07/18 11:20:06;;;;;;;7.18;4.45;;;;;;;24.11;91.20;94557.63;4952634;29;20338;-64
2023/07/18 11:22:33;;;;;;;9.68;4.82;;;;;;;23.96;91.18;94548.47;4953035;29;20073;-62
2023/07/18 11:25:00;;;;;;;11.68;4.38;;;;;;;24.08;90.48;94524.94;4952740;29;20059;-63
2023/07/18 11:27:29;;;;;;;7.60;4.38;;;;;;;23.98;88.52;94489.13;4953546;29;20097;-62
2023/07/18 11:30:04;;;;;;;9.13;4.43;;;;;;;24.10;87.82;94423.50;4952844;29;20055;-61
2023/07/18 11:32:37;;;;;;;8.93;4.80;;;;;;;23.03;96.60;94248.50;4953261;29;20049;-61
2023/07/18 11:35:07;;;;;;;9.13;5.30;;;;;;;22.56;100.00;94228.75;4952408;29;20145;-61